Weather at Saiqal Air Base

Public forecast

Using degrees Celsius for public forecast. Weather courtesy of forecast.io.

Closest aviation weather report (METAR) to Saiqal Air Base

Closest report is Damascus International Airport, 38.5 nm (71.4 km) WSW.

2024/05/30 19:00 (retrieved 35 minutes ago)

OSDI 301900Z 22013KT CAVOK 19/10 Q1014

Closest aviation forecast (TAF) to Saiqal Air Base

Forecast is more than 6 hours old.

Closest forecast is Damascus International Airport, 38.5 nm (71.4 km) WSW.

2024/05/30 12:12 (retrieved 7 hours ago)

TAF OSDI 301100Z 3012/3118 22010KT 8000 FEW030 TEMPO 3012/3118 22015G25KT 8000 FEW030